createdAt,value
2022-09-03T00:00:58.578Z,0.00
2022-09-03T00:01:58.615Z,0.00
2022-09-03T00:02:58.621Z,0.00
2022-09-03T00:03:58.580Z,0.00
2022-09-03T00:04:58.533Z,0.00
2022-09-03T00:05:58.532Z,0.00
2022-09-03T00:06:58.511Z,0.00
2022-09-03T00:07:58.553Z,0.00
2022-09-03T00:08:58.501Z,0.00
2022-09-03T00:09:58.485Z,0.00
2022-09-03T00:10:58.473Z,0.00
2022-09-03T00:11:58.475Z,0.00
2022-09-03T00:12:58.464Z,0.00
2022-09-03T00:13:58.532Z,0.00
2022-09-03T00:14:58.425Z,0.00
2022-09-03T00:15:58.455Z,0.00
2022-09-03T00:16:58.417Z,0.00
2022-09-03T00:17:58.415Z,0.00
2022-09-03T00:18:58.385Z,0.00
2022-09-03T00:19:58.384Z,0.00
2022-09-03T00:20:58.366Z,0.00
2022-09-03T00:21:58.358Z,0.00
2022-09-03T00:22:58.377Z,0.00
2022-09-03T00:23:58.423Z,0.00
2022-09-03T00:24:58.326Z,0.00
2022-09-03T00:25:58.318Z,0.00
2022-09-03T00:26:58.308Z,0.00
2022-09-03T00:27:58.301Z,0.00
2022-09-03T00:28:58.289Z,0.00
2022-09-03T00:29:58.272Z,0.00
2022-09-03T00:30:58.296Z,0.00
2022-09-03T00:31:58.256Z,0.00
2022-09-03T00:32:58.249Z,0.00
2022-09-03T00:33:58.237Z,0.00
2022-09-03T00:34:58.220Z,0.00
2022-09-03T00:35:58.219Z,0.00
2022-09-03T00:36:58.189Z,0.00
2022-09-03T00:37:58.201Z,0.00
2022-09-03T00:38:58.172Z,0.00
2022-09-03T00:39:58.221Z,0.00
2022-09-03T00:40:58.151Z,0.00
2022-09-03T00:41:58.141Z,0.00
2022-09-03T00:42:58.139Z,0.00
2022-09-03T00:43:58.122Z,0.00
2022-09-03T00:44:58.134Z,0.00
2022-09-03T00:45:58.160Z,0.00
2022-09-03T00:46:58.082Z,0.00
2022-09-03T00:47:58.098Z,0.00
2022-09-03T00:48:58.061Z,0.00
2022-09-03T00:49:58.055Z,0.00
2022-09-03T00:50:58.034Z,0.00
2022-09-03T00:51:58.044Z,0.00
2022-09-03T00:52:58.057Z,0.00
2022-09-03T00:53:58.024Z,0.00
2022-09-03T00:54:57.996Z,0.00
2022-09-03T00:55:58.006Z,0.00
2022-09-03T00:56:57.977Z,0.00
2022-09-03T00:57:57.987Z,0.00
2022-09-03T00:58:57.957Z,0.00
2022-09-03T00:59:57.956Z,0.00
2022-09-03T01:00:57.932Z,0.00
2022-09-03T01:01:58.033Z,0.00
2022-09-03T01:02:58.067Z,0.00
2022-09-03T01:03:57.897Z,0.00
2022-09-03T01:04:57.887Z,0.00
2022-09-03T01:06:01.494Z,0.00
2022-09-03T01:06:57.888Z,0.00
2022-09-03T01:07:57.999Z,0.00
2022-09-03T01:08:57.846Z,0.00
2022-09-03T01:09:57.842Z,0.00
2022-09-03T01:10:57.819Z,0.00
2022-09-03T01:11:57.818Z,0.00
2022-09-03T01:12:57.829Z,0.00
2022-09-03T01:13:57.799Z,0.00
2022-09-03T01:14:57.780Z,0.00
2022-09-03T01:15:57.838Z,0.00
2022-09-03T01:16:57.751Z,0.00
2022-09-03T01:17:57.765Z,0.00
2022-09-03T01:18:57.740Z,0.00
2022-09-03T01:19:57.732Z,0.00
2022-09-03T01:20:57.711Z,0.00
2022-09-03T01:21:57.718Z,0.00
2022-09-03T01:22:57.711Z,0.00
2022-09-03T01:23:57.682Z,0.00
2022-09-03T01:24:57.673Z,0.00
2022-09-03T01:25:57.674Z,0.00
2022-09-03T01:26:57.644Z,0.00
2022-09-03T01:27:57.644Z,0.00
2022-09-03T01:28:57.632Z,0.00
2022-09-03T01:29:57.625Z,0.00
2022-09-03T01:30:57.654Z,0.00
2022-09-03T01:31:57.601Z,0.00
2022-09-03T01:32:57.595Z,0.00
2022-09-03T01:33:57.575Z,0.00
2022-09-03T01:34:57.567Z,0.00
2022-09-03T01:35:57.556Z,0.00
2022-09-03T01:36:57.535Z,0.00
2022-09-03T01:37:57.557Z,0.00
2022-09-03T01:38:57.516Z,0.00
2022-09-03T01:39:57.538Z,0.00
2022-09-03T01:40:57.488Z,0.00
2022-09-03T01:41:57.487Z,0.00
2022-09-03T01:42:57.478Z,0.00
2022-09-03T01:43:57.520Z,0.00
2022-09-03T01:44:57.448Z,0.00
2022-09-03T01:45:57.474Z,0.00
2022-09-03T01:46:57.448Z,0.00
2022-09-03T01:47:57.419Z,0.00
2022-09-03T01:48:57.439Z,0.00
2022-09-03T01:49:57.397Z,0.00
2022-09-03T01:50:57.379Z,0.00
2022-09-03T01:51:57.386Z,0.00
2022-09-03T01:52:57.371Z,0.00
2022-09-03T01:53:57.382Z,0.00
2022-09-03T01:54:57.340Z,0.00
2022-09-03T01:55:57.329Z,0.00
2022-09-03T01:56:57.312Z,0.00
2022-09-03T01:57:57.313Z,0.00
2022-09-03T01:58:57.291Z,0.00
2022-09-03T01:59:57.355Z,0.00
2022-09-03T02:00:57.277Z,0.00
2022-09-03T02:01:57.322Z,0.00
2022-09-03T02:02:57.313Z,0.00
2022-09-03T02:03:57.233Z,0.00
2022-09-03T02:04:57.222Z,0.00
2022-09-03T02:05:57.214Z,0.00
2022-09-03T02:06:57.203Z,0.00
2022-09-03T02:07:57.321Z,0.00
2022-09-03T02:08:57.196Z,0.00
2022-09-03T02:09:57.173Z,0.00
2022-09-03T02:10:57.164Z,0.00
2022-09-03T02:11:57.153Z,0.00
2022-09-03T02:12:57.144Z,0.00
2022-09-03T02:13:57.125Z,0.00
2022-09-03T02:14:57.137Z,0.00
2022-09-03T02:15:57.246Z,0.00
2022-09-03T02:16:57.096Z,0.00
2022-09-03T02:17:57.096Z,0.00
2022-09-03T02:18:57.175Z,0.00
2022-09-03T02:19:57.058Z,0.00
2022-09-03T02:20:57.047Z,0.00
2022-09-03T02:21:57.027Z,0.00
2022-09-03T02:22:57.042Z,0.00
2022-09-03T02:23:57.008Z,0.00
2022-09-03T02:24:56.998Z,0.00
2022-09-03T02:25:56.988Z,0.00
2022-09-03T02:26:56.990Z,0.00
2022-09-03T02:27:56.969Z,0.00
2022-09-03T02:28:56.959Z,0.00
2022-09-03T02:29:56.957Z,0.00
2022-09-03T02:30:57.083Z,0.00
2022-09-03T02:31:56.931Z,0.00
2022-09-03T02:32:56.952Z,0.00
2022-09-03T02:33:57.023Z,0.00
2022-09-03T02:34:56.900Z,0.00
2022-09-03T02:35:56.884Z,0.00
2022-09-03T02:36:56.875Z,0.00
2022-09-03T02:37:56.873Z,0.00
2022-09-03T02:38:56.843Z,0.00
2022-09-03T02:39:56.899Z,0.00
2022-09-03T02:40:56.822Z,0.00
2022-09-03T02:41:56.822Z,0.00
2022-09-03T02:42:56.819Z,0.00
2022-09-03T02:43:56.801Z,0.00
2022-09-03T02:44:56.784Z,0.00
2022-09-03T02:45:56.811Z,0.00
2022-09-03T02:46:56.765Z,0.00
2022-09-03T02:47:56.755Z,0.00
2022-09-03T02:48:56.743Z,0.00
2022-09-03T02:49:56.733Z,0.00
2022-09-03T02:50:56.726Z,0.00
2022-09-03T02:51:56.695Z,0.00
2022-09-03T02:52:56.707Z,0.00
2022-09-03T02:53:56.696Z,0.00
2022-09-03T02:54:56.666Z,0.00
2022-09-03T02:55:56.667Z,0.00
2022-09-03T02:56:56.649Z,0.00
2022-09-03T02:57:56.646Z,0.00
2022-09-03T02:58:56.648Z,0.00
2022-09-03T02:59:56.617Z,0.00
2022-09-03T03:00:56.616Z,0.00
2022-09-03T03:01:56.628Z,0.00
2022-09-03T03:02:56.606Z,0.00
2022-09-03T03:03:56.567Z,0.00
2022-09-03T03:04:56.560Z,0.00
2022-09-03T03:05:56.638Z,0.00
2022-09-03T03:06:56.531Z,0.00
2022-09-03T03:07:56.542Z,0.00
2022-09-03T03:08:56.516Z,0.00
2022-09-03T03:09:56.680Z,0.00
2022-09-03T03:10:56.491Z,0.00
2022-09-03T03:11:56.508Z,0.00
2022-09-03T03:12:56.489Z,0.00
2022-09-03T03:13:56.478Z,0.00
2022-09-03T03:14:56.443Z,0.00
2022-09-03T03:15:56.442Z,0.00
2022-09-03T03:16:56.493Z,0.00
2022-09-03T03:17:56.424Z,0.00
2022-09-03T03:18:56.391Z,0.00
2022-09-03T03:19:56.404Z,0.00
2022-09-03T03:20:56.379Z,0.00
2022-09-03T03:21:56.366Z,0.00
2022-09-03T03:22:56.373Z,0.00
2022-09-03T03:23:56.352Z,0.00
2022-09-03T03:24:56.333Z,0.00
2022-09-03T03:25:56.323Z,0.00
2022-09-03T03:26:56.313Z,0.00
2022-09-03T03:27:56.306Z,0.00
2022-09-03T03:28:56.286Z,0.00
2022-09-03T03:29:56.286Z,0.00
2022-09-03T03:30:56.335Z,0.00
2022-09-03T03:31:56.265Z,0.00
2022-09-03T03:32:56.255Z,0.00
2022-09-03T03:33:56.236Z,0.00
2022-09-03T03:34:56.234Z,0.00
2022-09-03T03:35:56.226Z,0.00
2022-09-03T03:36:56.197Z,0.00
2022-09-03T03:37:56.205Z,0.00
2022-09-03T03:38:56.185Z,0.00
2022-09-03T03:39:56.236Z,0.00
2022-09-03T03:40:56.156Z,0.00
2022-09-03T03:41:56.151Z,0.00
2022-09-03T03:42:56.160Z,0.00
2022-09-03T03:43:56.126Z,0.00
2022-09-03T03:44:56.125Z,0.00
2022-09-03T03:45:56.155Z,0.00
2022-09-03T03:46:56.106Z,0.00
2022-09-03T03:47:56.127Z,0.00
2022-09-03T03:48:56.061Z,0.00
2022-09-03T03:49:56.089Z,0.00
2022-09-03T03:50:56.042Z,0.00
2022-09-03T03:51:56.057Z,0.00
2022-09-03T03:52:56.036Z,0.00
2022-09-03T03:53:56.029Z,0.00
2022-09-03T03:54:56.129Z,0.00
2022-09-03T03:55:56.059Z,0.00
2022-09-03T03:56:55.993Z,0.00
2022-09-03T03:57:55.979Z,0.00
2022-09-03T03:58:55.960Z,0.00
2022-09-03T03:59:55.948Z,0.00
2022-09-03T04:00:55.962Z,0.00
2022-09-03T04:01:55.965Z,0.00
2022-09-03T04:02:55.967Z,0.00
2022-09-03T04:03:56.270Z,0.00
2022-09-03T04:04:55.893Z,0.00
2022-09-03T04:05:55.883Z,0.00
2022-09-03T04:06:55.865Z,0.00
2022-09-03T04:07:55.871Z,0.00
2022-09-03T04:08:55.947Z,0.00
2022-09-03T04:09:55.823Z,0.00
2022-09-03T04:10:55.824Z,0.00
2022-09-03T04:11:55.824Z,0.00
2022-09-03T04:12:55.805Z,4.00
2022-09-03T04:13:55.796Z,4.00
2022-09-03T04:14:55.789Z,0.00
2022-09-03T04:15:55.775Z,4.00
2022-09-03T04:16:55.814Z,4.00
2022-09-03T04:17:55.757Z,4.00
2022-09-03T04:18:55.748Z,4.00
2022-09-03T04:19:55.727Z,4.00
2022-09-03T04:20:55.729Z,4.00
2022-09-03T04:21:55.727Z,8.00
2022-09-03T04:22:55.706Z,12.00
2022-09-03T04:23:55.697Z,8.00
2022-09-03T04:24:55.658Z,12.00
2022-09-03T04:25:55.778Z,12.00
2022-09-03T04:26:55.638Z,20.00
2022-09-03T04:27:55.648Z,20.00
2022-09-03T04:28:55.646Z,24.00
2022-09-03T04:29:55.608Z,32.00
2022-09-03T04:30:55.666Z,36.00
2022-09-03T04:31:55.689Z,44.00
2022-09-03T04:32:55.589Z,48.00
2022-09-03T04:33:55.571Z,60.00
2022-09-03T04:34:55.562Z,72.00
2022-09-03T04:35:55.569Z,80.00
2022-09-03T04:36:55.550Z,96.00
2022-09-03T04:37:55.531Z,108.00
2022-09-03T04:38:55.511Z,128.00
2022-09-03T04:39:55.621Z,144.00
2022-09-03T04:40:55.492Z,164.00
2022-09-03T04:41:55.481Z,188.00
2022-09-03T04:42:55.471Z,208.00
2022-09-03T04:43:55.466Z,232.00
2022-09-03T04:44:55.443Z,260.00
2022-09-03T04:45:55.451Z,288.00
2022-09-03T04:46:55.423Z,316.00
2022-09-03T04:47:55.430Z,344.00
2022-09-03T04:48:55.405Z,376.00
2022-09-03T04:49:55.433Z,408.00
2022-09-03T04:50:55.383Z,440.00
2022-09-03T04:51:55.373Z,476.00
2022-09-03T04:52:55.374Z,508.00
2022-09-03T04:53:55.352Z,536.00
2022-09-03T04:54:55.334Z,568.00
2022-09-03T04:55:55.326Z,600.00
2022-09-03T04:56:55.306Z,632.00
2022-09-03T04:57:55.357Z,664.00
2022-09-03T04:58:55.288Z,700.00
2022-09-03T04:59:55.286Z,732.00
2022-09-03T05:00:55.282Z,760.00
2022-09-03T05:01:55.294Z,784.00
2022-09-03T05:02:55.258Z,804.00
2022-09-03T05:03:55.241Z,828.00
2022-09-03T05:04:55.220Z,856.00
2022-09-03T05:05:55.297Z,888.00
2022-09-03T05:06:55.201Z,928.00
2022-09-03T05:07:55.208Z,972.00
2022-09-03T05:08:55.179Z,1028.00
2022-09-03T05:09:55.167Z,1100.00
2022-09-03T05:10:55.190Z,1168.00
2022-09-03T05:11:55.140Z,1244.00
2022-09-03T05:12:55.147Z,1332.00
2022-09-03T05:13:55.134Z,1432.00
2022-09-03T05:14:55.111Z,1524.00
2022-09-03T05:15:55.093Z,1588.00
2022-09-03T05:16:55.128Z,1628.00
2022-09-03T05:17:55.090Z,1672.00
2022-09-03T05:18:55.078Z,1732.00
2022-09-03T05:19:55.066Z,1808.00
2022-09-03T05:20:55.053Z,1908.00
2022-09-03T05:21:55.033Z,2032.00
2022-09-03T05:22:55.043Z,2176.00
2022-09-03T05:23:55.014Z,2320.00
2022-09-03T05:24:55.003Z,2460.00
2022-09-03T05:25:54.992Z,2596.00
2022-09-03T05:26:54.987Z,2720.00
2022-09-03T05:27:54.974Z,2808.00
2022-09-03T05:28:54.964Z,2868.00
2022-09-03T05:29:54.954Z,2912.00
2022-09-03T05:30:54.944Z,2952.00
2022-09-03T05:31:54.985Z,3008.00
2022-09-03T05:32:54.994Z,3056.00
2022-09-03T05:33:54.917Z,3120.00
2022-09-03T05:34:54.904Z,3192.00
2022-09-03T05:35:54.887Z,3288.00
2022-09-03T05:36:54.875Z,3392.00
2022-09-03T05:37:54.895Z,3500.00
2022-09-03T05:38:54.858Z,3600.00
2022-09-03T05:39:54.954Z,3684.00
2022-09-03T05:40:54.839Z,3744.00
2022-09-03T05:41:54.817Z,3780.00
2022-09-03T05:42:54.827Z,3784.00
2022-09-03T05:43:54.809Z,3752.00
2022-09-03T05:44:54.797Z,3668.00
2022-09-03T05:45:54.848Z,3552.00
2022-09-03T05:46:54.809Z,3476.00
2022-09-03T05:47:54.790Z,3488.00
2022-09-03T05:48:54.752Z,3568.00
2022-09-03T05:49:54.741Z,3716.00
2022-09-03T05:50:54.736Z,3904.00
2022-09-03T05:51:54.710Z,4116.00
2022-09-03T05:52:54.711Z,4340.00
2022-09-03T05:53:54.689Z,4564.00
2022-09-03T05:54:54.694Z,4800.00
2022-09-03T05:55:54.682Z,5064.00
2022-09-03T05:56:54.665Z,5320.00
2022-09-03T05:57:54.642Z,5560.00
2022-09-03T05:58:54.634Z,5808.00
2022-09-03T05:59:54.638Z,6040.00
2022-09-03T06:00:54.613Z,6256.00
2022-09-03T06:01:58.055Z,6440.00
2022-09-03T06:02:55.787Z,6612.00
2022-09-03T06:03:54.575Z,6820.00
2022-09-03T06:04:54.569Z,7036.00
2022-09-03T06:05:54.548Z,7244.00
2022-09-03T06:06:54.546Z,7436.00
2022-09-03T06:07:54.566Z,7616.00
2022-09-03T06:08:54.544Z,7768.00
2022-09-03T06:09:54.497Z,7884.00
2022-09-03T06:10:54.513Z,7920.00
2022-09-03T06:11:54.485Z,7820.00
2022-09-03T06:12:54.487Z,7632.00
2022-09-03T06:13:54.468Z,7452.00
2022-09-03T06:14:54.457Z,7304.00
2022-09-03T06:15:54.442Z,7176.00
2022-09-03T06:16:54.492Z,7032.00
2022-09-03T06:17:54.449Z,6872.00
2022-09-03T06:18:54.420Z,6692.00
2022-09-03T06:19:54.519Z,6536.00
2022-09-03T06:20:54.388Z,6444.00
2022-09-03T06:21:54.371Z,6496.00
2022-09-03T06:22:54.381Z,6636.00
2022-09-03T06:23:54.350Z,6812.00
2022-09-03T06:24:54.340Z,6980.00
2022-09-03T06:25:54.331Z,7152.00
2022-09-03T06:26:54.324Z,7388.00
2022-09-03T06:27:54.311Z,7704.00
2022-09-03T06:28:54.320Z,8120.00
2022-09-03T06:29:54.318Z,8608.00
2022-09-03T06:30:54.311Z,9128.00
2022-09-03T06:31:54.378Z,9668.00
2022-09-03T06:32:54.271Z,10344.00
2022-09-03T06:33:54.252Z,11988.00
2022-09-03T06:34:54.235Z,20128.00
2022-09-03T06:35:54.226Z,23488.00
2022-09-03T06:36:54.812Z,26432.00
2022-09-03T06:37:54.203Z,25408.00
2022-09-03T06:38:54.237Z,26208.00
2022-09-03T06:39:54.233Z,26752.00
2022-09-03T06:40:54.173Z,22432.00
2022-09-03T06:41:54.156Z,23968.00
2022-09-03T06:42:54.165Z,29216.00
2022-09-03T06:43:54.137Z,35872.00
2022-09-03T06:44:54.135Z,32512.00
2022-09-03T06:45:54.142Z,25216.00
2022-09-03T06:46:54.099Z,28928.00
2022-09-03T06:47:54.099Z,30624.00
2022-09-03T06:48:54.079Z,32928.00
2022-09-03T06:49:54.059Z,43264.00
2022-09-03T06:50:54.065Z,43936.00
2022-09-03T06:51:54.040Z,36896.00
2022-09-03T06:52:54.049Z,31392.00
2022-09-03T06:53:54.120Z,16768.00
2022-09-03T06:54:54.022Z,16000.00
2022-09-03T06:55:54.002Z,16448.00
2022-09-03T06:56:53.991Z,17056.00
2022-09-03T06:57:54.169Z,17600.00
2022-09-03T06:58:53.962Z,18048.00
2022-09-03T06:59:53.952Z,18400.00
2022-09-03T07:00:54.090Z,18848.00
2022-09-03T07:01:54.428Z,19200.00
2022-09-03T07:02:53.943Z,19648.00
2022-09-03T07:03:53.915Z,20352.00
2022-09-03T07:04:53.903Z,21376.00
2022-09-03T07:05:53.893Z,22336.00
2022-09-03T07:06:53.886Z,22880.00
2022-09-03T07:07:53.885Z,23424.00
2022-09-03T07:08:54.097Z,28352.00
2022-09-03T07:09:54.005Z,31104.00
2022-09-03T07:10:53.838Z,25632.00
2022-09-03T07:11:53.827Z,24000.00
2022-09-03T07:12:53.818Z,23008.00
2022-09-03T07:13:53.811Z,21568.00
2022-09-03T07:14:53.807Z,20928.00
2022-09-03T07:15:53.856Z,18592.00
2022-09-03T07:16:53.779Z,17152.00
2022-09-03T07:17:53.770Z,16048.00
2022-09-03T07:18:53.741Z,15288.00
2022-09-03T07:19:53.744Z,14784.00
2022-09-03T07:20:53.829Z,14584.00
2022-09-03T07:21:53.734Z,14632.00
2022-09-03T07:22:53.714Z,14856.00
2022-09-03T07:23:53.702Z,15068.00
2022-09-03T07:24:53.683Z,15048.00
2022-09-03T07:25:53.682Z,14728.00
2022-09-03T07:26:53.705Z,14240.00
2022-09-03T07:27:53.657Z,13760.00
2022-09-03T07:28:53.643Z,13352.00
2022-09-03T07:29:53.674Z,12976.00
2022-09-03T07:30:53.625Z,12640.00
2022-09-03T07:31:53.739Z,12320.00
2022-09-03T07:32:53.604Z,11920.00
2022-09-03T07:33:53.585Z,11444.00
2022-09-03T07:34:53.578Z,10912.00
2022-09-03T07:35:53.566Z,10368.00
2022-09-03T07:36:53.595Z,9804.00
2022-09-03T07:37:53.547Z,9268.00
2022-09-03T07:38:53.862Z,8860.00
2022-09-03T07:39:53.814Z,8680.00
2022-09-03T07:40:54.598Z,8748.00
2022-09-03T07:41:53.659Z,9056.00
2022-09-03T07:42:55.241Z,9548.00
2022-09-03T07:43:53.478Z,10144.00
2022-09-03T07:44:53.499Z,10756.00
2022-09-03T07:45:53.452Z,11360.00
2022-09-03T07:46:53.623Z,11932.00
2022-09-03T07:47:53.450Z,12424.00
2022-09-03T07:48:53.431Z,12804.00
2022-09-03T07:49:53.421Z,13064.00
2022-09-03T07:50:53.409Z,13168.00
2022-09-03T07:51:53.427Z,13168.00
2022-09-03T07:52:53.377Z,13088.00
2022-09-03T07:53:53.367Z,12972.00
2022-09-03T07:54:53.421Z,12816.00
2022-09-03T07:55:53.365Z,12636.00
2022-09-03T07:56:53.335Z,12456.00
2022-09-03T07:57:53.322Z,12276.00
2022-09-03T07:58:53.310Z,12116.00
2022-09-03T07:59:53.360Z,11988.00
2022-09-03T08:00:53.318Z,11912.00
2022-09-03T08:01:53.286Z,11860.00
2022-09-03T08:02:53.293Z,11848.00
2022-09-03T08:03:53.292Z,11876.00
2022-09-03T08:04:53.250Z,11944.00
2022-09-03T08:05:53.237Z,12020.00
2022-09-03T08:06:53.237Z,12068.00
2022-09-03T08:07:53.209Z,12104.00
2022-09-03T08:08:53.218Z,12136.00
2022-09-03T08:09:53.180Z,12124.00
2022-09-03T08:10:53.239Z,11912.00
2022-09-03T08:11:53.179Z,11636.00
2022-09-03T08:12:53.299Z,11336.00
2022-09-03T08:13:53.143Z,11008.00
2022-09-03T08:14:53.140Z,10680.00
2022-09-03T08:15:53.149Z,10344.00
2022-09-03T08:16:53.128Z,9992.00
2022-09-03T08:17:53.100Z,9796.00
2022-09-03T08:18:53.190Z,9608.00
2022-09-03T08:19:53.081Z,9488.00
2022-09-03T08:20:53.150Z,9448.00
2022-09-03T08:21:53.281Z,9348.00
2022-09-03T08:22:53.052Z,9232.00
2022-09-03T08:23:53.034Z,9100.00
2022-09-03T08:24:53.023Z,9004.00
2022-09-03T08:25:53.024Z,8980.00
2022-09-03T08:26:53.063Z,9016.00
2022-09-03T08:27:52.982Z,9104.00
2022-09-03T08:28:53.165Z,9240.00
2022-09-03T08:29:52.993Z,9444.00
2022-09-03T08:30:53.017Z,9656.00
2022-09-03T08:31:52.990Z,9860.00
2022-09-03T08:32:52.937Z,10080.00
2022-09-03T08:33:52.915Z,10240.00
2022-09-03T08:34:52.918Z,10368.00
2022-09-03T08:35:52.896Z,10616.00
2022-09-03T08:36:52.906Z,10812.00
2022-09-03T08:37:56.687Z,11044.00
2022-09-03T08:38:52.877Z,11296.00
2022-09-03T08:39:52.897Z,11580.00
2022-09-03T08:40:52.857Z,11928.00
2022-09-03T08:41:52.857Z,12332.00
2022-09-03T08:42:52.831Z,12772.00
2022-09-03T08:43:52.811Z,13232.00
2022-09-03T08:44:52.818Z,13728.00
2022-09-03T08:45:52.780Z,14216.00
2022-09-03T08:46:52.848Z,14804.00
2022-09-03T08:47:52.770Z,15440.00
2022-09-03T08:48:52.760Z,16108.00
2022-09-03T08:49:52.748Z,17088.00
2022-09-03T08:50:52.747Z,18112.00
2022-09-03T08:51:52.732Z,18976.00
2022-09-03T08:52:52.733Z,19552.00
2022-09-03T08:53:52.702Z,20128.00
2022-09-03T08:54:52.694Z,20736.00
2022-09-03T08:55:52.682Z,21376.00
2022-09-03T08:56:52.699Z,22240.00
2022-09-03T08:57:52.653Z,22752.00
2022-09-03T08:58:52.645Z,23296.00
2022-09-03T08:59:52.644Z,24000.00
2022-09-03T09:00:52.664Z,25152.00
2022-09-03T09:01:52.804Z,25856.00
2022-09-03T09:02:52.691Z,26496.00
2022-09-03T09:03:52.584Z,26976.00
2022-09-03T09:04:52.585Z,26912.00
2022-09-03T09:05:52.587Z,26272.00
2022-09-03T09:06:52.572Z,25664.00
2022-09-03T09:07:52.544Z,24928.00
2022-09-03T09:08:52.565Z,24224.00
2022-09-03T09:09:52.526Z,23808.00
2022-09-03T09:10:52.517Z,23744.00
2022-09-03T09:11:52.521Z,23936.00
2022-09-03T09:12:52.520Z,24288.00
2022-09-03T09:13:52.479Z,24640.00
2022-09-03T09:14:53.910Z,25056.00
2022-09-03T09:15:52.485Z,25568.00
2022-09-03T09:16:52.459Z,26304.00
2022-09-03T09:17:53.122Z,29504.00
2022-09-03T09:18:52.550Z,35392.00
2022-09-03T09:19:52.442Z,28672.00
2022-09-03T09:20:52.459Z,28768.00
2022-09-03T09:21:52.391Z,29280.00
2022-09-03T09:22:52.392Z,32352.00
2022-09-03T09:23:52.372Z,28960.00
2022-09-03T09:24:52.373Z,29152.00
2022-09-03T09:25:52.413Z,29344.00
2022-09-03T09:26:52.353Z,29472.00
2022-09-03T09:27:52.322Z,29792.00
2022-09-03T09:28:52.322Z,30528.00
2022-09-03T09:29:52.468Z,31968.00
2022-09-03T09:30:52.410Z,36256.00
2022-09-03T09:31:52.286Z,38496.00
2022-09-03T09:32:52.275Z,43360.00
2022-09-03T09:33:52.256Z,45792.00
2022-09-03T09:34:52.791Z,52896.00
2022-09-03T09:35:52.251Z,56576.00
2022-09-03T09:36:52.247Z,65344.00
2022-09-03T09:37:52.217Z,123936.00
2022-09-03T09:38:52.209Z,92032.00
2022-09-03T09:39:52.237Z,103616.00
2022-09-03T09:40:52.190Z,127712.00
2022-09-03T09:41:52.189Z,130528.00
2022-09-03T09:42:52.174Z,125408.00
2022-09-03T09:43:52.150Z,130848.00
2022-09-03T09:44:52.183Z,132480.00
2022-09-03T09:45:52.122Z,108064.00
2022-09-03T09:46:54.822Z,103104.00
2022-09-03T09:47:52.112Z,109728.00
2022-09-03T09:48:52.103Z,123936.00
2022-09-03T09:49:52.083Z,126912.00
2022-09-03T09:50:52.087Z,114720.00
2022-09-03T09:51:52.065Z,120416.00
2022-09-03T09:52:55.131Z,118560.00
2022-09-03T09:53:53.044Z,123808.00
2022-09-03T09:54:52.035Z,127168.00
2022-09-03T09:55:52.056Z,123296.00
2022-09-03T09:56:52.048Z,121632.00
2022-09-03T09:57:52.009Z,115424.00
2022-09-03T09:58:52.006Z,113504.00
2022-09-03T09:59:51.989Z,118432.00
2022-09-03T10:00:51.981Z,121408.00
2022-09-03T10:01:52.008Z,92192.00
2022-09-03T10:02:52.037Z,114848.00
2022-09-03T10:03:51.940Z,119808.00
2022-09-03T10:04:51.939Z,128832.00
2022-09-03T10:05:51.940Z,133888.00
2022-09-03T10:06:51.922Z,135168.00
2022-09-03T10:07:51.910Z,144992.00
2022-09-03T10:08:51.953Z,140352.00
2022-09-03T10:09:51.882Z,114432.00
2022-09-03T10:10:51.884Z,69056.00
2022-09-03T10:11:52.250Z,52160.00
2022-09-03T10:12:51.855Z,73440.00
2022-09-03T10:13:51.846Z,60064.00
2022-09-03T10:14:51.846Z,64288.00
2022-09-03T10:15:51.888Z,55200.00
2022-09-03T10:16:51.827Z,61408.00
2022-09-03T10:17:51.808Z,78272.00
2022-09-03T10:18:51.798Z,80800.00
2022-09-03T10:19:51.788Z,85664.00
2022-09-03T10:20:51.801Z,91264.00
2022-09-03T10:21:51.770Z,76128.00
2022-09-03T10:22:57.107Z,80672.00
2022-09-03T10:23:52.750Z,86464.00
2022-09-03T10:24:51.738Z,74080.00
2022-09-03T10:25:51.722Z,70784.00
2022-09-03T10:26:51.772Z,63744.00
2022-09-03T10:27:51.702Z,69344.00
2022-09-03T10:28:51.695Z,62080.00
2022-09-03T10:29:52.900Z,60128.00
2022-09-03T10:30:51.772Z,57184.00
2022-09-03T10:31:51.679Z,52512.00
2022-09-03T10:32:51.656Z,58912.00
2022-09-03T10:33:51.635Z,61056.00
2022-09-03T10:34:51.636Z,58208.00
2022-09-03T10:35:51.625Z,59232.00
2022-09-03T10:36:51.625Z,64192.00
2022-09-03T10:37:51.597Z,60928.00
2022-09-03T10:38:51.628Z,57760.00
2022-09-03T10:39:52.504Z,62720.00
2022-09-03T10:40:51.570Z,76320.00
2022-09-03T10:41:51.582Z,63392.00
2022-09-03T10:42:51.550Z,102080.00
2022-09-03T10:43:51.540Z,122368.00
2022-09-03T10:44:51.532Z,83872.00
2022-09-03T10:45:51.564Z,73632.00
2022-09-03T10:46:51.587Z,65152.00
2022-09-03T10:47:51.492Z,81632.00
2022-09-03T10:48:51.486Z,89600.00
2022-09-03T10:49:51.473Z,95264.00
2022-09-03T10:50:51.473Z,76352.00
2022-09-03T10:51:51.463Z,107296.00
2022-09-03T10:52:51.473Z,83840.00
2022-09-03T10:53:51.458Z,113536.00
2022-09-03T10:54:51.435Z,74880.00
2022-09-03T10:55:51.435Z,73568.00
2022-09-03T10:56:51.435Z,97760.00
2022-09-03T10:57:51.509Z,56384.00
2022-09-03T10:58:51.410Z,50336.00
2022-09-03T10:59:51.405Z,51648.00
2022-09-03T11:00:51.389Z,44192.00
2022-09-03T11:01:51.455Z,43616.00
2022-09-03T11:02:51.419Z,45312.00
2022-09-03T11:03:51.337Z,46624.00
2022-09-03T11:04:51.320Z,47840.00
2022-09-03T11:05:51.322Z,49120.00
2022-09-03T11:06:51.341Z,46048.00
2022-09-03T11:07:51.302Z,43488.00
2022-09-03T11:08:51.292Z,43904.00
2022-09-03T11:09:51.265Z,49888.00
2022-09-03T11:10:51.323Z,79808.00
2022-09-03T11:11:51.267Z,59712.00
2022-09-03T11:12:53.005Z,50080.00
2022-09-03T11:13:51.226Z,41824.00
2022-09-03T11:14:51.215Z,39296.00
2022-09-03T11:15:51.258Z,40928.00
2022-09-03T11:16:51.256Z,74912.00
2022-09-03T11:17:51.194Z,71616.00
2022-09-03T11:18:51.190Z,69280.00
2022-09-03T11:19:51.170Z,59776.00
2022-09-03T11:20:51.149Z,54304.00
2022-09-03T11:21:51.173Z,65152.00
2022-09-03T11:22:51.175Z,98272.00
2022-09-03T11:23:55.030Z,139936.00
2022-09-03T11:24:51.117Z,74016.00
2022-09-03T11:25:51.112Z,64128.00
2022-09-03T11:26:51.135Z,107808.00
2022-09-03T11:27:54.580Z,55616.00
2022-09-03T11:28:52.076Z,91328.00
2022-09-03T11:29:51.063Z,125760.00
2022-09-03T11:30:51.144Z,135584.00
2022-09-03T11:31:51.045Z,138144.00
2022-09-03T11:32:52.978Z,57120.00
2022-09-03T11:33:51.053Z,62752.00
2022-09-03T11:34:51.015Z,63328.00
2022-09-03T11:35:51.006Z,72256.00
2022-09-03T11:36:50.996Z,100544.00
2022-09-03T11:37:50.977Z,125024.00
2022-09-03T11:38:50.969Z,110848.00
2022-09-03T11:39:51.002Z,118496.00
2022-09-03T11:40:50.949Z,83456.00
2022-09-03T11:41:50.949Z,119680.00
2022-09-03T11:42:50.940Z,117792.00
2022-09-03T11:43:50.922Z,109408.00
2022-09-03T11:44:51.354Z,114336.00
2022-09-03T11:45:50.922Z,104480.00
2022-09-03T11:46:50.903Z,126432.00
2022-09-03T11:47:50.879Z,120320.00
2022-09-03T11:48:50.873Z,127424.00
2022-09-03T11:49:50.854Z,122016.00
2022-09-03T11:50:50.853Z,120704.00
2022-09-03T11:51:50.855Z,114784.00
2022-09-03T11:52:50.835Z,120672.00
2022-09-03T11:53:50.827Z,108224.00
2022-09-03T11:54:50.826Z,121216.00
2022-09-03T11:55:50.839Z,118464.00
2022-09-03T11:56:50.806Z,109632.00
2022-09-03T11:57:50.777Z,113984.00
2022-09-03T11:58:50.777Z,112960.00
2022-09-03T11:59:50.759Z,111680.00
2022-09-03T12:00:50.759Z,115680.00
2022-09-03T12:01:50.774Z,116576.00
2022-09-03T12:02:54.268Z,118560.00
2022-09-03T12:03:51.741Z,113792.00
2022-09-03T12:04:50.824Z,121728.00
2022-09-03T12:05:50.703Z,121888.00
2022-09-03T12:06:50.710Z,124192.00
2022-09-03T12:07:50.683Z,122016.00
2022-09-03T12:08:50.683Z,119040.00
2022-09-03T12:09:50.663Z,112928.00
2022-09-03T12:10:50.662Z,115488.00
2022-09-03T12:11:50.687Z,114208.00
2022-09-03T12:12:50.664Z,114176.00
2022-09-03T12:13:50.625Z,113280.00
2022-09-03T12:14:50.635Z,115072.00
2022-09-03T12:15:50.637Z,114816.00
2022-09-03T12:16:50.627Z,120480.00
2022-09-03T12:17:50.667Z,112832.00
2022-09-03T12:18:50.586Z,110240.00
2022-09-03T12:19:50.570Z,101696.00